createdAt,value
2019-04-25T00:02:33.307Z,8.10
2019-04-25T00:05:04.689Z,8.33
2019-04-25T00:07:35.110Z,8.67
2019-04-25T00:10:06.239Z,8.20
2019-04-25T00:12:37.855Z,6.30
2019-04-25T00:15:08.485Z,6.23
2019-04-25T00:17:40.114Z,6.80
2019-04-25T00:20:11.411Z,7.07
2019-04-25T00:22:47.939Z,7.00
2019-04-25T00:25:45.905Z,5.63
2019-04-25T00:28:15.695Z,6.63
2019-04-25T00:30:46.089Z,5.50
2019-04-25T00:33:16.465Z,5.13
2019-04-25T00:35:47.403Z,5.90
2019-04-25T00:38:17.711Z,5.47
2019-04-25T00:40:48.062Z,5.53
2019-04-25T00:43:18.384Z,7.10
2019-04-25T00:45:48.601Z,5.43
2019-04-25T00:48:18.985Z,10.37
2019-04-25T00:50:49.892Z,8.83
2019-04-25T00:53:21.221Z,6.20
2019-04-25T00:55:52.516Z,7.03
2019-04-25T00:58:52.833Z,7.37
2019-04-25T01:01:41.368Z,8.37
2019-04-25T01:04:13.333Z,8.50
2019-04-25T01:06:44.026Z,7.93
2019-04-25T01:09:17.018Z,8.03
2019-04-25T01:11:47.925Z,10.57
2019-04-25T01:14:18.258Z,10.40
2019-04-25T01:16:48.647Z,11.70
2019-04-25T01:19:18.786Z,14.27
2019-04-25T01:21:49.127Z,12.87
2019-04-25T01:24:19.621Z,14.13
2019-04-25T01:26:51.643Z,11.23
2019-04-25T01:29:23.394Z,10.10
2019-04-25T01:31:54.373Z,8.57
2019-04-25T01:34:39.763Z,8.40
2019-04-25T01:37:23.677Z,7.53
2019-04-25T01:40:19.630Z,8.10
2019-04-25T01:43:13.668Z,12.10
2019-04-25T01:45:43.930Z,11.00
2019-04-25T01:48:14.356Z,12.43
2019-04-25T01:50:44.680Z,13.53
2019-04-25T01:53:15.134Z,11.67
2019-04-25T01:55:53.738Z,9.27
2019-04-25T01:58:17.219Z,15.67
2019-04-25T02:00:48.664Z,15.17
2019-04-25T02:03:18.958Z,17.43
2019-04-25T02:05:49.165Z,17.73
2019-04-25T02:08:19.543Z,23.57
2019-04-25T02:10:57.016Z,21.30
2019-04-25T02:13:27.256Z,19.97
2019-04-25T02:15:57.489Z,20.70
2019-04-25T02:18:27.768Z,20.43
2019-04-25T02:21:00.223Z,19.83
2019-04-25T02:23:29.757Z,18.63
2019-04-25T02:26:12.656Z,19.93
2019-04-25T02:28:33.843Z,17.50
2019-04-25T02:31:08.531Z,19.70
2019-04-25T02:33:36.056Z,16.73
2019-04-25T02:36:08.671Z,15.37
2019-04-25T02:38:38.139Z,15.07
2019-04-25T02:41:09.115Z,13.57
2019-04-25T02:43:39.545Z,14.87
2019-04-25T02:46:31.847Z,16.37
2019-04-25T02:49:34.804Z,14.63
2019-04-25T02:52:03.423Z,14.53
2019-04-25T02:54:34.811Z,15.07
2019-04-25T02:57:07.770Z,15.23
2019-04-25T02:59:37.310Z,17.13
2019-04-25T03:02:09.226Z,15.03
2019-04-25T03:04:39.680Z,15.20
2019-04-25T03:07:11.319Z,16.00
2019-04-25T03:09:41.819Z,16.90
2019-04-25T03:12:26.936Z,14.87
2019-04-25T03:14:44.739Z,17.23
2019-04-25T03:17:15.056Z,15.10
2019-04-25T03:20:11.711Z,11.77
2019-04-25T03:22:44.249Z,16.00
2019-04-25T03:25:17.287Z,16.43
2019-04-25T03:27:45.682Z,16.97
2019-04-25T03:30:18.135Z,16.00
2019-04-25T03:32:51.510Z,16.13
2019-04-25T03:35:20.483Z,18.83
2019-04-25T03:37:50.753Z,17.93
2019-04-25T03:40:21.028Z,24.83
2019-04-25T03:42:51.286Z,19.47
2019-04-25T03:45:21.497Z,20.37
2019-04-25T03:47:53.030Z,19.20
2019-04-25T03:50:23.497Z,18.17
2019-04-25T03:52:54.060Z,14.53
2019-04-25T03:55:24.333Z,18.60
2019-04-25T03:57:54.637Z,16.97
2019-04-25T04:00:24.948Z,20.67
2019-04-25T04:02:55.447Z,22.83
2019-04-25T04:05:26.453Z,19.23
2019-04-25T04:08:05.246Z,22.33
2019-04-25T04:10:43.511Z,19.33
2019-04-25T04:13:24.336Z,24.73
2019-04-25T04:16:03.288Z,22.17
2019-04-25T04:18:49.133Z,27.07
2019-04-25T04:21:44.029Z,22.90
2019-04-25T04:24:26.847Z,20.33
2019-04-25T04:27:18.267Z,27.77
2019-04-25T04:29:48.494Z,20.53
2019-04-25T04:32:19.511Z,18.20
2019-04-25T04:34:49.849Z,24.30
2019-04-25T04:37:19.972Z,22.50
2019-04-25T04:39:50.233Z,24.87
2019-04-25T04:42:20.512Z,23.67
2019-04-25T04:44:50.705Z,21.37
2019-04-25T04:47:20.890Z,20.40
2019-04-25T04:49:51.155Z,19.67
2019-04-25T04:52:23.485Z,19.10
2019-04-25T04:55:04.417Z,18.10
2019-04-25T04:57:32.250Z,17.43
2019-04-25T04:59:57.002Z,22.13
2019-04-25T05:02:45.117Z,25.87
2019-04-25T05:05:24.665Z,24.37
2019-04-25T05:07:58.171Z,26.97
2019-04-25T05:10:28.392Z,29.60
2019-04-25T05:12:58.584Z,32.50
2019-04-25T05:15:29.125Z,33.67
2019-04-25T05:17:59.392Z,34.90
2019-04-25T05:20:29.596Z,33.40
2019-04-25T05:22:59.939Z,31.83
2019-04-25T05:25:30.250Z,34.80
2019-04-25T05:28:03.158Z,30.67
2019-04-25T05:30:46.415Z,32.93
2019-04-25T05:33:20.940Z,36.70
2019-04-25T05:35:49.901Z,27.47
2019-04-25T05:38:20.173Z,28.57
2019-04-25T05:41:01.239Z,29.67
2019-04-25T05:43:31.502Z,28.40
2019-04-25T05:46:03.272Z,27.40
2019-04-25T05:48:37.329Z,26.77
2019-04-25T05:51:08.180Z,23.73
2019-04-25T05:53:38.374Z,23.23
2019-04-25T05:56:36.665Z,20.47
2019-04-25T05:59:07.061Z,18.10
2019-04-25T06:01:39.170Z,18.90
2019-04-25T06:04:09.411Z,16.13
2019-04-25T06:06:39.501Z,12.93
2019-04-25T06:09:30.507Z,14.83
2019-04-25T06:12:20.086Z,15.00
2019-04-25T06:14:50.331Z,13.43
2019-04-25T06:17:26.346Z,13.37
2019-04-25T06:19:56.863Z,13.20
2019-04-25T06:22:45.947Z,14.47
2019-04-25T06:25:17.462Z,12.50
2019-04-25T06:27:56.518Z,14.63
2019-04-25T06:30:27.864Z,15.33
2019-04-25T06:32:58.183Z,14.67
2019-04-25T06:35:29.634Z,15.37
2019-04-25T06:37:59.931Z,18.23
2019-04-25T06:40:30.762Z,17.13
2019-04-25T06:43:01.121Z,18.80
2019-04-25T06:46:08.729Z,19.87
2019-04-25T06:48:46.221Z,23.60
2019-04-25T06:51:16.477Z,25.70
2019-04-25T06:53:46.650Z,28.87
2019-04-25T06:56:16.879Z,31.70
2019-04-25T06:58:47.213Z,30.63
2019-04-25T07:01:17.429Z,31.93
2019-04-25T07:03:47.651Z,32.80
2019-04-25T07:06:17.958Z,33.80
2019-04-25T07:08:48.081Z,30.97
2019-04-25T07:11:18.278Z,31.93
2019-04-25T07:13:48.635Z,31.60
2019-04-25T07:16:18.863Z,32.90
2019-04-25T07:18:49.066Z,29.27
2019-04-25T07:21:19.392Z,28.47
2019-04-25T07:23:49.773Z,28.53
2019-04-25T07:26:39.707Z,27.57
2019-04-25T07:29:28.672Z,28.67
2019-04-25T07:32:20.808Z,30.63
2019-04-25T07:34:51.076Z,28.77
2019-04-25T07:37:22.071Z,30.07
2019-04-25T07:39:52.288Z,32.10
2019-04-25T07:42:23.850Z,31.23
2019-04-25T07:44:55.215Z,30.73
2019-04-25T07:47:26.739Z,29.80
2019-04-25T07:49:57.558Z,29.13
2019-04-25T07:52:28.801Z,28.30
2019-04-25T07:54:59.434Z,29.40
2019-04-25T07:57:31.200Z,28.27
2019-04-25T08:00:03.461Z,27.57
2019-04-25T08:02:34.849Z,26.73
2019-04-25T08:05:11.025Z,26.37
2019-04-25T08:07:41.516Z,27.43
2019-04-25T08:10:13.998Z,27.33
2019-04-25T08:12:47.299Z,25.30
2019-04-25T08:15:33.846Z,25.63
2019-04-25T08:18:06.948Z,25.27
2019-04-25T08:20:37.142Z,25.97
2019-04-25T08:23:07.601Z,27.03
2019-04-25T08:25:39.387Z,23.47
2019-04-25T08:28:09.791Z,25.00
2019-04-25T08:30:40.474Z,26.67
2019-04-25T08:33:10.662Z,24.93
2019-04-25T08:35:40.938Z,24.00
2019-04-25T08:38:13.478Z,23.83
2019-04-25T08:40:44.196Z,23.50
2019-04-25T08:43:14.727Z,25.63
2019-04-25T08:45:44.949Z,23.37
2019-04-25T08:48:15.208Z,24.10
2019-04-25T08:51:10.469Z,23.83
2019-04-25T08:53:48.375Z,24.43
2019-04-25T08:56:24.380Z,26.50
2019-04-25T08:59:52.705Z,25.03
2019-04-25T09:02:47.203Z,24.73
2019-04-25T09:05:21.118Z,24.50
2019-04-25T09:07:51.356Z,24.03
2019-04-25T09:10:21.597Z,22.30
2019-04-25T09:12:53.595Z,21.83
2019-04-25T09:15:24.134Z,20.00
2019-04-25T09:17:54.893Z,21.60
2019-04-25T09:20:25.193Z,22.07
2019-04-25T09:22:55.522Z,22.53
2019-04-25T09:25:25.774Z,22.20
2019-04-25T09:27:55.953Z,22.57
2019-04-25T09:30:26.319Z,23.30
2019-04-25T09:32:56.502Z,23.47
2019-04-25T09:35:33.526Z,20.97
2019-04-25T09:38:04.416Z,21.03
2019-04-25T09:40:36.140Z,20.40
2019-04-25T09:43:06.509Z,20.80
2019-04-25T09:46:07.963Z,20.63
2019-04-25T09:48:59.994Z,20.57
2019-04-25T09:51:36.141Z,21.53
2019-04-25T09:54:25.992Z,21.97
2019-04-25T09:57:00.339Z,21.17
2019-04-25T09:59:30.565Z,22.90
2019-04-25T10:02:00.843Z,21.10
2019-04-25T10:04:31.223Z,22.77
2019-04-25T10:07:01.390Z,21.40
2019-04-25T10:09:31.595Z,20.97
2019-04-25T10:12:01.849Z,21.37
2019-04-25T10:15:18.394Z,21.53
2019-04-25T10:17:48.697Z,20.07
2019-04-25T10:20:19.653Z,21.57
2019-04-25T10:22:49.985Z,21.80
2019-04-25T10:25:20.296Z,21.67
2019-04-25T10:27:50.525Z,20.50
2019-04-25T10:30:23.723Z,21.20
2019-04-25T10:32:54.414Z,21.80
2019-04-25T10:35:24.459Z,23.17
2019-04-25T10:37:55.039Z,23.27
2019-04-25T10:40:25.468Z,21.23
2019-04-25T10:42:56.645Z,23.20
2019-04-25T10:45:27.342Z,22.40
2019-04-25T10:47:57.561Z,24.30
2019-04-25T10:50:27.718Z,23.40
2019-04-25T10:52:57.886Z,22.13
2019-04-25T10:55:28.140Z,24.30
2019-04-25T10:57:58.489Z,23.97
2019-04-25T11:00:40.807Z,29.20
2019-04-25T11:03:39.640Z,28.03
2019-04-25T11:06:23.949Z,32.43
2019-04-25T11:08:56.500Z,30.53
2019-04-25T11:11:26.265Z,29.93
2019-04-25T11:13:58.582Z,26.40
2019-04-25T11:16:28.725Z,28.57
2019-04-25T11:19:01.719Z,28.33
2019-04-25T11:21:33.298Z,29.50
2019-04-25T11:24:04.119Z,29.17
2019-04-25T11:26:34.601Z,31.07
2019-04-25T11:29:05.009Z,30.67
2019-04-25T11:31:48.973Z,33.37
2019-04-25T11:34:20.554Z,32.90
2019-04-25T11:36:50.882Z,33.90
2019-04-25T11:39:53.129Z,32.30
2019-04-25T11:42:24.358Z,32.43
2019-04-25T11:44:55.595Z,30.07
2019-04-25T11:47:25.845Z,32.53
2019-04-25T11:49:56.105Z,32.47
2019-04-25T11:52:28.115Z,30.00
2019-04-25T11:54:58.131Z,31.27
2019-04-25T11:57:28.161Z,32.23
2019-04-25T11:59:58.475Z,32.10
2019-04-25T12:02:29.333Z,31.73
2019-04-25T12:04:59.470Z,32.20
2019-04-25T12:07:29.821Z,30.67
2019-04-25T12:10:00.031Z,31.10
2019-04-25T12:12:30.324Z,31.63
2019-04-25T12:15:00.680Z,32.83
2019-04-25T12:17:30.878Z,30.47
2019-04-25T12:20:01.129Z,31.37
2019-04-25T12:22:31.551Z,30.80
2019-04-25T12:25:01.778Z,29.63
2019-04-25T12:27:31.944Z,31.27
2019-04-25T12:30:05.110Z,29.87
2019-04-25T12:32:35.248Z,30.13
2019-04-25T12:35:06.323Z,27.80
2019-04-25T12:37:36.525Z,27.47
2019-04-25T12:40:09.056Z,30.20
2019-04-25T12:42:39.225Z,28.87
2019-04-25T12:45:20.705Z,27.27
2019-04-25T12:47:54.750Z,28.33
2019-04-25T12:50:24.727Z,28.00
2019-04-25T12:52:56.021Z,27.67
2019-04-25T12:55:26.297Z,28.27
2019-04-25T12:57:56.629Z,27.37
2019-04-25T13:00:27.802Z,27.53
2019-04-25T13:02:58.741Z,26.60
2019-04-25T13:05:29.641Z,27.67
2019-04-25T13:08:00.863Z,28.27
2019-04-25T13:10:31.253Z,28.23
2019-04-25T13:13:03.968Z,32.20
2019-04-25T13:15:34.936Z,30.80
2019-04-25T13:18:05.254Z,32.37
2019-04-25T13:20:36.176Z,31.47
2019-04-25T13:23:08.873Z,30.10
2019-04-25T13:25:39.011Z,29.13
2019-04-25T13:28:24.709Z,30.03
2019-04-25T13:31:15.364Z,29.57
2019-04-25T13:33:59.527Z,29.17
2019-04-25T13:36:29.802Z,28.90
2019-04-25T13:39:00.650Z,29.23
2019-04-25T13:41:30.806Z,27.67
2019-04-25T13:44:01.133Z,30.37
2019-04-25T13:46:32.628Z,30.03
2019-04-25T13:49:04.533Z,29.27
2019-04-25T13:51:34.784Z,30.40
2019-04-25T13:54:05.053Z,29.87
2019-04-25T13:56:40.271Z,29.53
2019-04-25T13:59:07.972Z,29.30
2019-04-25T14:01:38.490Z,30.63
2019-04-25T14:04:09.007Z,29.47
2019-04-25T14:06:39.259Z,28.13
2019-04-25T14:09:13.577Z,25.40
2019-04-25T14:11:44.132Z,28.23
2019-04-25T14:14:14.394Z,27.33
2019-04-25T14:17:06.802Z,27.70
2019-04-25T14:20:00.232Z,30.13
2019-04-25T14:22:30.665Z,27.60
2019-04-25T14:25:00.923Z,28.97
2019-04-25T14:27:31.087Z,27.57
2019-04-25T14:30:03.751Z,26.83
2019-04-25T14:32:33.973Z,29.17
2019-04-25T14:35:05.535Z,28.30
2019-04-25T14:37:39.675Z,34.93
2019-04-25T14:40:09.122Z,33.90
2019-04-25T14:42:39.377Z,31.70
2019-04-25T14:45:10.913Z,29.20
2019-04-25T14:47:41.090Z,26.83
2019-04-25T14:50:12.326Z,25.67
2019-04-25T14:52:42.629Z,28.23
2019-04-25T14:55:44.185Z,27.77
2019-04-25T14:58:16.303Z,28.67
2019-04-25T15:00:48.799Z,28.33
2019-04-25T15:03:19.190Z,27.97
2019-04-25T15:05:49.344Z,28.57
2019-04-25T15:08:19.573Z,28.07
2019-04-25T15:10:49.743Z,29.17
2019-04-25T15:13:19.930Z,30.50
2019-04-25T15:15:50.241Z,29.57
2019-04-25T15:18:20.505Z,29.57
2019-04-25T15:20:50.711Z,29.37
2019-04-25T15:23:20.951Z,28.23
2019-04-25T15:25:51.181Z,29.00
2019-04-25T15:28:21.305Z,29.73
2019-04-25T15:30:51.529Z,27.20
2019-04-25T15:33:21.689Z,29.30
2019-04-25T15:35:57.861Z,27.30
2019-04-25T15:38:38.120Z,28.37
2019-04-25T15:41:14.791Z,26.80
2019-04-25T15:44:04.058Z,26.50
2019-04-25T15:46:36.378Z,28.33
2019-04-25T15:49:06.754Z,27.00
2019-04-25T15:51:37.770Z,27.37
2019-04-25T15:54:08.322Z,26.53
2019-04-25T15:56:38.436Z,26.73
2019-04-25T15:59:08.706Z,25.27
2019-04-25T16:01:39.092Z,24.00
2019-04-25T16:04:09.418Z,25.23
2019-04-25T16:06:39.738Z,25.07
2019-04-25T16:09:10.481Z,26.53
2019-04-25T16:11:40.794Z,25.40
2019-04-25T16:14:11.047Z,26.33
2019-04-25T16:16:41.300Z,24.50
2019-04-25T16:19:11.542Z,26.13
2019-04-25T16:21:42.211Z,26.10
2019-04-25T16:24:12.602Z,23.03
2019-04-25T16:26:44.446Z,26.23
2019-04-25T16:29:14.593Z,25.00
2019-04-25T16:31:47.302Z,26.47
2019-04-25T16:34:18.602Z,27.27
2019-04-25T16:36:48.892Z,24.37
2019-04-25T16:39:22.805Z,23.07
2019-04-25T16:41:53.014Z,21.07
2019-04-25T16:44:23.188Z,20.47
2019-04-25T16:46:53.468Z,19.47
2019-04-25T16:49:23.735Z,18.37
2019-04-25T16:51:54.003Z,16.87
2019-04-25T16:54:25.252Z,18.00
2019-04-25T16:56:55.450Z,19.13
2019-04-25T16:59:25.666Z,17.33
2019-04-25T17:01:55.891Z,16.63
2019-04-25T17:04:26.118Z,17.57
2019-04-25T17:06:56.353Z,18.00
2019-04-25T17:09:26.577Z,15.87
2019-04-25T17:11:56.975Z,16.47
2019-04-25T17:14:46.220Z,15.77
2019-04-25T17:17:40.534Z,16.17
2019-04-25T17:20:20.958Z,15.83
2019-04-25T17:22:51.380Z,17.13
2019-04-25T17:25:25.512Z,15.30
2019-04-25T17:27:55.757Z,15.50
2019-04-25T17:30:28.774Z,16.43
2019-04-25T17:33:17.876Z,18.00
2019-04-25T17:36:10.015Z,17.00
2019-04-25T17:38:46.979Z,16.53
2019-04-25T17:41:17.247Z,16.57
2019-04-25T17:43:47.465Z,16.43
2019-04-25T17:46:19.396Z,15.63
2019-04-25T17:48:49.605Z,15.97
2019-04-25T17:51:19.889Z,15.07
2019-04-25T17:53:50.146Z,14.97
2019-04-25T17:56:21.203Z,12.90
2019-04-25T17:58:51.430Z,14.00
2019-04-25T18:01:25.291Z,14.60
2019-04-25T18:03:55.642Z,12.97
2019-04-25T18:06:25.928Z,12.77
2019-04-25T18:09:04.186Z,13.33
2019-04-25T18:12:00.074Z,12.47
2019-04-25T18:14:31.210Z,14.23
2019-04-25T18:17:09.510Z,13.60
2019-04-25T18:19:49.705Z,12.90
2019-04-25T18:22:52.811Z,13.10
2019-04-25T18:25:43.251Z,14.30
2019-04-25T18:28:35.507Z,14.97
2019-04-25T18:31:06.918Z,15.10
2019-04-25T18:33:37.452Z,15.80
2019-04-25T18:36:29.448Z,16.57
2019-04-25T18:39:09.966Z,18.93
2019-04-25T18:41:57.950Z,20.20
2019-04-25T18:44:28.216Z,21.20
2019-04-25T18:46:58.533Z,24.20
2019-04-25T18:49:28.638Z,24.97
2019-04-25T18:52:04.273Z,25.17
2019-04-25T18:54:59.841Z,25.50
2019-04-25T18:57:49.964Z,33.53
2019-04-25T19:00:37.838Z,35.80
2019-04-25T19:03:27.067Z,37.90
2019-04-25T19:06:00.408Z,45.27
2019-04-25T19:08:30.569Z,40.07
2019-04-25T19:11:00.898Z,36.20
2019-04-25T19:13:31.299Z,36.53
2019-04-25T19:16:01.370Z,35.43
2019-04-25T19:18:31.543Z,32.70
2019-04-25T19:21:01.770Z,32.57
2019-04-25T19:23:32.114Z,36.90
2019-04-25T19:26:02.206Z,41.93
2019-04-25T19:28:32.392Z,41.17
2019-04-25T19:31:08.833Z,49.07
2019-04-25T19:33:48.838Z,40.47
2019-04-25T19:36:25.409Z,39.20
2019-04-25T19:39:01.997Z,36.37
2019-04-25T19:41:45.023Z,31.27
2019-04-25T19:44:26.608Z,31.07
2019-04-25T19:47:03.468Z,27.97
2019-04-25T19:49:40.633Z,26.30
2019-04-25T19:52:18.189Z,26.23
2019-04-25T19:54:54.715Z,24.50
2019-04-25T19:57:30.987Z,26.77
2019-04-25T20:00:09.605Z,25.63
2019-04-25T20:03:02.144Z,25.53
2019-04-25T20:05:52.434Z,26.57
2019-04-25T20:08:50.751Z,28.10
2019-04-25T20:11:35.439Z,26.60
2019-04-25T20:14:12.089Z,30.53
2019-04-25T20:16:51.858Z,31.80
2019-04-25T20:19:31.429Z,34.33
2019-04-25T20:22:01.678Z,33.37
2019-04-25T20:24:31.885Z,34.90
2019-04-25T20:27:02.196Z,36.10
2019-04-25T20:29:32.419Z,36.53
2019-04-25T20:32:02.553Z,37.50
2019-04-25T20:34:32.888Z,40.07
2019-04-25T20:37:03.561Z,39.87
2019-04-25T20:39:33.771Z,38.90
2019-04-25T20:42:04.013Z,38.73
2019-04-25T20:44:36.455Z,38.77
2019-04-25T20:47:05.969Z,38.33
2019-04-25T20:49:36.182Z,36.87
2019-04-25T20:52:06.582Z,36.60
2019-04-25T20:54:36.678Z,34.00
2019-04-25T20:57:06.972Z,35.83
2019-04-25T20:59:37.229Z,35.43
2019-04-25T21:02:09.237Z,32.03
2019-04-25T21:04:43.320Z,30.70
2019-04-25T21:07:13.643Z,26.20
2019-04-25T21:09:43.873Z,26.40
2019-04-25T21:12:14.197Z,23.90
2019-04-25T21:14:53.113Z,23.60
2019-04-25T21:17:27.125Z,20.60
2019-04-25T21:19:58.455Z,19.43
2019-04-25T21:22:28.725Z,19.07
2019-04-25T21:24:59.020Z,18.40
2019-04-25T21:27:29.441Z,18.37
2019-04-25T21:29:59.797Z,17.43
2019-04-25T21:32:31.831Z,17.57
2019-04-25T21:35:02.310Z,16.07
2019-04-25T21:37:32.509Z,17.43
2019-04-25T21:40:13.554Z,17.53
2019-04-25T21:42:53.145Z,16.67
2019-04-25T21:45:25.141Z,17.87
2019-04-25T21:47:55.831Z,18.27
2019-04-25T21:50:27.432Z,18.77
2019-04-25T21:52:57.905Z,19.20
2019-04-25T21:55:36.900Z,20.07
2019-04-25T21:58:13.896Z,21.17
2019-04-25T22:01:04.486Z,20.23
2019-04-25T22:03:39.094Z,20.97
2019-04-25T22:06:09.627Z,21.07
2019-04-25T22:08:39.952Z,20.97
2019-04-25T22:11:10.309Z,21.47
2019-04-25T22:13:40.850Z,18.80
2019-04-25T22:16:11.381Z,21.87
2019-04-25T22:18:41.959Z,20.47
2019-04-25T22:21:12.747Z,22.90
2019-04-25T22:23:43.170Z,21.77
2019-04-25T22:26:13.497Z,23.40
2019-04-25T22:28:43.876Z,22.97
2019-04-25T22:31:22.078Z,22.00
2019-04-25T22:34:09.810Z,23.03
2019-04-25T22:36:41.200Z,22.63
2019-04-25T22:39:11.699Z,23.27
2019-04-25T22:41:46.481Z,23.60
2019-04-25T22:44:18.212Z,23.00
2019-04-25T22:46:48.779Z,24.00
2019-04-25T22:49:18.955Z,22.37
2019-04-25T22:51:49.123Z,20.60
2019-04-25T22:54:19.618Z,22.07
2019-04-25T22:56:49.820Z,21.00
2019-04-25T22:59:20.315Z,18.50
2019-04-25T23:02:15.626Z,19.13
2019-04-25T23:05:12.109Z,17.27
2019-04-25T23:07:38.369Z,16.80
2019-04-25T23:10:09.087Z,15.90
2019-04-25T23:12:40.261Z,15.40
2019-04-25T23:15:11.010Z,15.67
2019-04-25T23:17:41.249Z,15.47
2019-04-25T23:20:11.954Z,13.93
2019-04-25T23:22:42.263Z,13.77
2019-04-25T23:25:14.341Z,15.30
2019-04-25T23:28:06.152Z,14.40
2019-04-25T23:30:55.847Z,14.90
2019-04-25T23:33:26.121Z,15.77
2019-04-25T23:35:56.478Z,15.67
2019-04-25T23:38:26.641Z,15.00
2019-04-25T23:40:56.936Z,16.17
2019-04-25T23:43:27.363Z,16.13
2019-04-25T23:45:57.591Z,17.73
2019-04-25T23:48:28.165Z,16.27
2019-04-25T23:50:58.475Z,19.60
2019-04-25T23:53:28.708Z,17.10
2019-04-25T23:55:59.007Z,18.80
2019-04-25T23:58:29.175Z,20.40
